createdAt,value
2019-02-27T00:00:45.206Z,23.90
2019-02-27T00:03:13.898Z,22.05
2019-02-27T00:05:42.459Z,25.15
2019-02-27T00:08:11.003Z,23.57
2019-02-27T00:10:39.899Z,22.65
2019-02-27T00:13:08.646Z,21.95
2019-02-27T00:15:38.050Z,21.10
2019-02-27T00:18:07.112Z,23.50
2019-02-27T00:20:37.044Z,26.87
2019-02-27T00:23:06.141Z,24.43
2019-02-27T00:25:36.246Z,23.85
2019-02-27T00:28:04.865Z,22.95
2019-02-27T00:30:37.974Z,26.45
2019-02-27T00:33:03.908Z,27.80
2019-02-27T00:35:32.449Z,26.87
2019-02-27T00:38:01.195Z,26.45
2019-02-27T00:40:29.736Z,22.73
2019-02-27T00:42:58.261Z,22.80
2019-02-27T00:45:26.978Z,21.12
2019-02-27T00:47:55.439Z,22.75
2019-02-27T00:50:23.961Z,20.77
2019-02-27T00:52:52.606Z,24.55
2019-02-27T00:55:21.154Z,24.35
2019-02-27T00:57:51.846Z,20.32
2019-02-27T01:00:19.917Z,21.05
2019-02-27T01:02:52.616Z,23.55
2019-02-27T01:05:18.632Z,24.87
2019-02-27T01:07:47.358Z,22.52
2019-02-27T01:10:15.805Z,21.65
2019-02-27T01:12:44.267Z,24.10
2019-02-27T01:15:15.646Z,24.10
2019-02-27T01:17:44.323Z,19.75
2019-02-27T01:20:16.074Z,22.15
2019-02-27T01:22:44.775Z,23.95
2019-02-27T01:25:13.221Z,24.07
2019-02-27T01:27:41.763Z,24.10
2019-02-27T01:30:13.314Z,22.60
2019-02-27T01:32:41.991Z,24.80
2019-02-27T01:35:11.852Z,21.62
2019-02-27T01:37:40.434Z,21.95
2019-02-27T01:40:11.624Z,20.88
2019-02-27T01:42:40.303Z,20.32
2019-02-27T01:45:11.815Z,22.35
2019-02-27T01:47:40.445Z,22.27
2019-02-27T01:50:29.816Z,20.45
2019-02-27T01:52:58.273Z,23.25
2019-02-27T01:55:26.737Z,24.05
2019-02-27T01:57:55.311Z,24.02
2019-02-27T02:00:23.987Z,33.10
2019-02-27T02:02:52.750Z,24.75
2019-02-27T02:05:21.247Z,20.48
2019-02-27T02:07:49.702Z,25.08
2019-02-27T02:10:18.387Z,25.82
2019-02-27T02:12:56.277Z,21.10
2019-02-27T02:15:43.350Z,23.27
2019-02-27T02:18:31.556Z,23.10
2019-02-27T02:21:17.595Z,19.85
2019-02-27T02:24:22.542Z,20.40
2019-02-27T02:27:10.779Z,23.07
2019-02-27T02:29:48.363Z,21.45
2019-02-27T02:32:36.796Z,22.93
2019-02-27T02:35:36.075Z,21.20
2019-02-27T02:38:34.945Z,19.35
2019-02-27T02:41:24.081Z,20.50
2019-02-27T02:44:21.081Z,23.10
2019-02-27T02:46:57.442Z,22.98
2019-02-27T02:49:59.565Z,21.85
2019-02-27T02:53:00.301Z,22.20
2019-02-27T02:55:51.830Z,24.37
2019-02-27T02:58:29.503Z,22.62
2019-02-27T03:01:03.821Z,20.90
2019-02-27T03:03:54.960Z,23.40
2019-02-27T03:06:36.122Z,20.62
2019-02-27T03:09:13.597Z,24.82
2019-02-27T03:11:54.091Z,25.20
2019-02-27T03:14:33.446Z,21.52
2019-02-27T03:17:38.318Z,20.05
2019-02-27T03:20:39.034Z,23.57
2019-02-27T03:23:19.532Z,22.05
2019-02-27T03:26:16.429Z,23.22
2019-02-27T03:29:01.876Z,21.02
2019-02-27T03:31:36.344Z,21.02
2019-02-27T03:34:26.085Z,22.13
2019-02-27T03:36:57.878Z,29.37
2019-02-27T03:39:46.198Z,21.60
2019-02-27T03:42:18.031Z,22.13
2019-02-27T03:44:55.804Z,19.85
2019-02-27T03:47:26.379Z,19.15
2019-02-27T03:50:00.936Z,24.82
2019-02-27T03:52:41.666Z,23.35
2019-02-27T03:55:25.233Z,20.65
2019-02-27T03:58:11.806Z,22.50
2019-02-27T04:00:58.604Z,18.70
2019-02-27T04:03:54.238Z,20.40
2019-02-27T04:06:40.370Z,24.05
2019-02-27T04:09:09.549Z,22.02
2019-02-27T04:11:41.482Z,18.50
2019-02-27T04:14:28.917Z,23.70
2019-02-27T04:16:57.559Z,18.00
2019-02-27T04:19:26.205Z,19.37
2019-02-27T04:22:00.775Z,20.90
2019-02-27T04:24:24.903Z,20.60
2019-02-27T04:26:53.503Z,21.35
2019-02-27T04:29:22.007Z,18.95
2019-02-27T04:31:50.467Z,18.87
2019-02-27T04:34:19.085Z,22.30
2019-02-27T04:36:47.803Z,20.48
2019-02-27T04:39:16.402Z,18.48
2019-02-27T04:41:44.945Z,20.85
2019-02-27T04:44:13.570Z,20.17
2019-02-27T04:46:42.105Z,19.35
2019-02-27T04:49:10.625Z,19.85
2019-02-27T04:51:39.244Z,18.98
2019-02-27T04:54:07.866Z,19.32
2019-02-27T04:56:36.323Z,20.88
2019-02-27T04:59:04.813Z,25.52
2019-02-27T05:01:36.463Z,18.98
2019-02-27T05:04:03.600Z,19.42
2019-02-27T05:06:32.199Z,19.70
2019-02-27T05:09:00.821Z,16.32
2019-02-27T05:11:29.549Z,14.15
2019-02-27T05:13:58.226Z,14.93
2019-02-27T05:16:26.677Z,13.20
2019-02-27T05:18:55.284Z,11.97
2019-02-27T05:21:23.935Z,13.80
2019-02-27T05:23:52.468Z,13.03
2019-02-27T05:26:21.011Z,11.38
2019-02-27T05:28:49.569Z,10.03
2019-02-27T05:31:19.008Z,12.30
2019-02-27T05:33:47.621Z,12.23
2019-02-27T05:36:16.260Z,13.98
2019-02-27T05:38:44.820Z,13.68
2019-02-27T05:41:13.412Z,11.35
2019-02-27T05:43:42.069Z,10.05
2019-02-27T05:46:10.611Z,12.07
2019-02-27T05:48:39.118Z,14.53
2019-02-27T05:51:08.540Z,12.40
2019-02-27T05:53:37.790Z,11.97
2019-02-27T05:56:06.340Z,9.03
2019-02-27T05:58:34.991Z,18.07
2019-02-27T06:01:04.916Z,13.40
2019-02-27T06:03:33.760Z,18.57
2019-02-27T06:06:02.322Z,9.45
2019-02-27T06:08:34.880Z,13.55
2019-02-27T06:11:01.010Z,10.40
2019-02-27T06:13:29.653Z,21.97
2019-02-27T06:16:02.940Z,30.55
2019-02-27T06:18:28.375Z,12.65
2019-02-27T06:20:56.959Z,11.08
2019-02-27T06:23:25.630Z,13.45
2019-02-27T06:25:59.065Z,11.00
2019-02-27T06:28:24.395Z,28.77
2019-02-27T06:30:54.643Z,27.40
2019-02-27T06:33:23.161Z,11.00
2019-02-27T06:35:51.823Z,10.25
2019-02-27T06:38:28.172Z,9.00
2019-02-27T06:40:52.312Z,7.80
2019-02-27T06:43:20.978Z,8.78
2019-02-27T06:45:49.630Z,11.25
2019-02-27T06:48:18.223Z,10.23
2019-02-27T06:50:46.830Z,7.87
2019-02-27T06:53:16.490Z,12.73
2019-02-27T06:55:45.336Z,10.60
2019-02-27T06:58:14.921Z,9.68
2019-02-27T07:00:44.156Z,9.78
2019-02-27T07:03:12.691Z,9.98
2019-02-27T07:05:41.268Z,11.75
2019-02-27T07:08:09.954Z,11.22
2019-02-27T07:10:38.479Z,10.58
2019-02-27T07:13:07.147Z,12.80
2019-02-27T07:15:35.696Z,13.80
2019-02-27T07:18:06.125Z,19.92
2019-02-27T07:20:34.466Z,11.12
2019-02-27T07:23:03.046Z,12.03
2019-02-27T07:25:31.800Z,17.82
2019-02-27T07:28:00.377Z,11.48
2019-02-27T07:30:33.325Z,125.05
2019-02-27T07:32:59.265Z,84.32
2019-02-27T07:35:29.247Z,42.43
2019-02-27T07:37:58.086Z,37.17
2019-02-27T07:40:26.605Z,12.23
2019-02-27T07:42:55.154Z,31.12
2019-02-27T07:45:24.136Z,18.55
2019-02-27T07:47:52.733Z,16.70
2019-02-27T07:50:21.863Z,13.48
2019-02-27T07:52:52.073Z,19.05
2019-02-27T07:55:23.083Z,15.60
2019-02-27T07:57:51.110Z,12.90
2019-02-27T08:00:26.498Z,13.62
2019-02-27T08:02:55.452Z,15.70
2019-02-27T08:05:28.334Z,16.60
2019-02-27T08:07:54.325Z,15.03
2019-02-27T08:10:25.136Z,20.62
2019-02-27T08:12:56.496Z,21.90
2019-02-27T08:15:25.413Z,16.55
2019-02-27T08:17:57.446Z,16.65
2019-02-27T08:20:24.505Z,19.98
2019-02-27T08:22:53.155Z,18.27
2019-02-27T08:25:21.821Z,23.95
2019-02-27T08:27:50.372Z,16.67
2019-02-27T08:30:28.957Z,16.75
2019-02-27T08:32:57.462Z,18.73
2019-02-27T08:35:28.916Z,36.83
2019-02-27T08:38:02.615Z,23.70
2019-02-27T08:40:28.007Z,25.30
2019-02-27T08:42:56.653Z,15.32
2019-02-27T08:45:27.075Z,15.58
2019-02-27T08:47:55.864Z,21.90
2019-02-27T08:50:25.049Z,15.95
2019-02-27T08:52:53.590Z,16.80
2019-02-27T08:55:22.976Z,25.37
2019-02-27T08:57:55.533Z,25.08
2019-02-27T09:00:23.566Z,30.65
2019-02-27T09:02:52.075Z,20.05
2019-02-27T09:05:20.958Z,18.75
2019-02-27T09:07:49.745Z,20.52
2019-02-27T09:10:28.028Z,24.87
2019-02-27T09:13:04.786Z,23.22
2019-02-27T09:15:26.579Z,21.37
2019-02-27T09:17:55.193Z,27.30
2019-02-27T09:20:23.871Z,24.82
2019-02-27T09:22:52.595Z,26.80
2019-02-27T09:25:23.685Z,23.73
2019-02-27T09:27:51.359Z,44.85
2019-02-27T09:30:28.811Z,32.50
2019-02-27T09:32:54.159Z,21.10
2019-02-27T09:35:22.735Z,20.20
2019-02-27T09:37:52.054Z,24.63
2019-02-27T09:40:29.664Z,21.37
2019-02-27T09:42:58.466Z,66.02
2019-02-27T09:45:29.495Z,42.03
2019-02-27T09:47:59.942Z,19.67
2019-02-27T09:50:39.352Z,20.37
2019-02-27T09:53:07.991Z,29.95
2019-02-27T09:55:36.450Z,17.85
2019-02-27T09:58:09.915Z,36.75
2019-02-27T10:00:38.918Z,31.82
2019-02-27T10:03:07.595Z,27.25
2019-02-27T10:05:37.394Z,30.40
2019-02-27T10:08:07.694Z,20.57
2019-02-27T10:10:36.274Z,18.52
2019-02-27T10:13:04.848Z,21.33
2019-02-27T10:15:34.446Z,19.50
2019-02-27T10:18:03.221Z,19.50
2019-02-27T10:20:31.728Z,23.57
2019-02-27T10:23:00.304Z,22.93
2019-02-27T10:25:28.967Z,21.80
2019-02-27T10:27:57.630Z,23.60
2019-02-27T10:30:26.389Z,25.55
2019-02-27T10:32:54.925Z,30.50
2019-02-27T10:35:23.477Z,22.32
2019-02-27T10:37:54.349Z,21.75
2019-02-27T10:40:28.364Z,28.00
2019-02-27T10:42:57.159Z,21.62
2019-02-27T10:45:25.767Z,23.35
2019-02-27T10:47:54.365Z,18.42
2019-02-27T10:50:23.027Z,22.85
2019-02-27T10:52:51.552Z,20.08
2019-02-27T10:55:22.299Z,19.02
2019-02-27T10:57:51.308Z,25.68
2019-02-27T11:00:32.381Z,25.88
2019-02-27T11:03:01.757Z,23.65
2019-02-27T11:05:35.084Z,24.32
2019-02-27T11:08:05.290Z,22.15
2019-02-27T11:10:33.842Z,25.10
2019-02-27T11:13:05.449Z,27.98
2019-02-27T11:15:32.564Z,24.92
2019-02-27T11:18:04.688Z,21.95
2019-02-27T11:20:31.310Z,23.10
2019-02-27T11:22:59.889Z,18.60
2019-02-27T11:25:31.961Z,22.60
2019-02-27T11:28:00.626Z,23.05
2019-02-27T11:30:35.991Z,22.17
2019-02-27T11:33:02.502Z,20.02
2019-02-27T11:35:31.045Z,25.00
2019-02-27T11:37:59.655Z,25.92
2019-02-27T11:40:28.567Z,23.75
2019-02-27T11:43:01.104Z,24.50
2019-02-27T11:47:57.816Z,25.32
2019-02-27T11:50:26.340Z,19.15
2019-02-27T11:52:54.997Z,22.60
2019-02-27T11:55:24.450Z,23.30
2019-02-27T11:57:53.314Z,22.07
2019-02-27T12:00:31.518Z,20.92
2019-02-27T12:03:00.040Z,30.57
2019-02-27T12:05:33.714Z,25.97
2019-02-27T12:07:59.350Z,22.98
2019-02-27T12:10:31.940Z,28.20
2019-02-27T12:13:01.283Z,21.35
2019-02-27T12:15:33.191Z,29.30
2019-02-27T12:18:01.963Z,24.95
2019-02-27T12:20:30.701Z,23.00
2019-02-27T12:22:59.459Z,26.60
2019-02-27T12:25:29.983Z,24.12
2019-02-27T12:27:58.310Z,35.48
2019-02-27T12:30:28.350Z,27.75
2019-02-27T12:32:57.231Z,30.57
2019-02-27T12:35:28.619Z,27.67
2019-02-27T12:37:57.219Z,31.65
2019-02-27T12:40:25.895Z,28.42
2019-02-27T12:42:54.543Z,27.70
2019-02-27T12:45:26.492Z,33.53
2019-02-27T12:47:55.182Z,27.32
2019-02-27T12:50:30.462Z,32.20
2019-02-27T12:52:56.551Z,28.52
2019-02-27T12:55:25.109Z,27.50
2019-02-27T12:57:53.762Z,30.00
2019-02-27T13:00:29.945Z,28.02
2019-02-27T13:02:59.102Z,36.10
2019-02-27T13:05:28.449Z,29.00
2019-02-27T13:07:57.105Z,28.47
2019-02-27T13:10:33.143Z,28.02
2019-02-27T13:12:59.350Z,26.87
2019-02-27T13:15:29.109Z,26.70
2019-02-27T13:17:57.984Z,30.92
2019-02-27T13:20:34.967Z,34.35
2019-02-27T13:23:05.128Z,27.27
2019-02-27T13:25:34.110Z,45.20
2019-02-27T13:28:02.825Z,38.28
2019-02-27T13:30:31.473Z,31.73
2019-02-27T13:33:01.360Z,28.00
2019-02-27T13:35:30.475Z,38.70
2019-02-27T13:37:59.107Z,34.73
2019-02-27T13:40:34.922Z,35.40
2019-02-27T13:43:01.621Z,56.90
2019-02-27T13:45:32.264Z,43.50
2019-02-27T13:48:05.894Z,26.80
2019-02-27T13:50:34.420Z,33.50
2019-02-27T13:53:03.036Z,30.80
2019-02-27T13:55:31.626Z,31.35
2019-02-27T13:58:03.450Z,29.05
2019-02-27T14:00:34.254Z,31.05
2019-02-27T14:03:02.758Z,31.37
2019-02-27T14:05:35.195Z,35.20
2019-02-27T14:08:01.733Z,31.80
2019-02-27T14:10:32.514Z,37.63
2019-02-27T14:13:01.153Z,33.00
2019-02-27T14:15:31.517Z,33.95
2019-02-27T14:18:00.198Z,29.18
2019-02-27T14:20:29.198Z,31.10
2019-02-27T14:22:57.955Z,30.25
2019-02-27T14:25:32.456Z,40.30
2019-02-27T14:27:58.848Z,31.65
2019-02-27T14:30:39.831Z,32.75
2019-02-27T14:33:11.036Z,37.93
2019-02-27T14:35:39.852Z,29.18
2019-02-27T14:38:08.500Z,34.30
2019-02-27T14:40:40.233Z,31.80
2019-02-27T14:43:07.520Z,32.25
2019-02-27T14:45:39.718Z,32.50
2019-02-27T14:48:06.490Z,37.85
2019-02-27T14:50:35.101Z,36.55
2019-02-27T14:53:05.262Z,32.60
2019-02-27T14:55:35.956Z,29.82
2019-02-27T14:58:04.119Z,33.55
2019-02-27T15:00:37.041Z,35.45
2019-02-27T15:03:04.459Z,36.03
2019-02-27T15:05:32.914Z,33.53
2019-02-27T15:08:01.464Z,39.83
2019-02-27T15:10:30.195Z,31.37
2019-02-27T15:12:58.633Z,36.88
2019-02-27T15:15:32.191Z,36.10
2019-02-27T15:18:02.521Z,31.12
2019-02-27T15:20:31.431Z,35.60
2019-02-27T15:23:00.058Z,35.98
2019-02-27T15:25:28.722Z,34.20
2019-02-27T15:27:58.734Z,39.05
2019-02-27T15:30:33.975Z,34.85
2019-02-27T15:33:05.385Z,35.10
2019-02-27T15:35:32.655Z,40.12
2019-02-27T15:38:01.319Z,39.40
2019-02-27T15:40:30.550Z,36.05
2019-02-27T15:42:59.264Z,38.95
2019-02-27T15:45:28.448Z,40.78
2019-02-27T15:47:57.170Z,41.68
2019-02-27T15:50:28.635Z,36.20
2019-02-27T15:52:57.237Z,36.85
2019-02-27T15:55:25.911Z,39.08
2019-02-27T15:57:54.632Z,34.35
2019-02-27T16:00:25.473Z,38.80
2019-02-27T16:02:54.065Z,39.20
2019-02-27T16:05:23.813Z,41.55
2019-02-27T16:07:52.487Z,43.35
2019-02-27T16:10:28.028Z,35.98
2019-02-27T16:13:00.042Z,38.70
2019-02-27T16:15:28.632Z,39.70
2019-02-27T16:17:57.186Z,35.50
2019-02-27T16:20:26.832Z,36.58
2019-02-27T16:22:55.381Z,36.15
2019-02-27T16:25:27.846Z,41.60
2019-02-27T16:27:56.365Z,42.47
2019-02-27T16:30:32.398Z,40.25
2019-02-27T16:33:00.300Z,39.42
2019-02-27T16:35:28.882Z,39.48
2019-02-27T16:37:57.951Z,45.23
2019-02-27T16:40:27.814Z,39.75
2019-02-27T16:42:56.349Z,42.60
2019-02-27T16:45:36.850Z,43.17
2019-02-27T16:48:04.382Z,41.75
2019-02-27T16:50:32.892Z,43.48
2019-02-27T16:53:01.530Z,37.40
2019-02-27T16:55:33.250Z,39.13
2019-02-27T16:58:01.950Z,34.27
2019-02-27T17:00:33.038Z,36.17
2019-02-27T17:03:01.649Z,38.02
2019-02-27T17:05:31.933Z,46.45
2019-02-27T17:08:02.379Z,43.00
2019-02-27T17:10:32.466Z,43.33
2019-02-27T17:13:01.041Z,42.33
2019-02-27T17:15:34.676Z,43.65
2019-02-27T17:18:00.106Z,42.33
2019-02-27T17:20:29.162Z,44.23
2019-02-27T17:22:57.789Z,44.23
2019-02-27T17:25:30.047Z,41.35
2019-02-27T17:27:56.840Z,44.65
2019-02-27T17:30:30.118Z,44.25
2019-02-27T17:33:01.360Z,41.68
2019-02-27T17:35:28.910Z,48.38
2019-02-27T17:37:58.347Z,42.93
2019-02-27T17:40:28.872Z,41.53
2019-02-27T17:42:57.288Z,53.63
2019-02-27T17:45:35.189Z,44.25
2019-02-27T17:48:02.626Z,41.88
2019-02-27T17:50:32.330Z,49.73
2019-02-27T17:53:01.099Z,47.98
2019-02-27T17:55:29.766Z,50.00
2019-02-27T17:57:59.195Z,45.98
2019-02-27T18:00:32.930Z,50.95
2019-02-27T18:03:05.068Z,50.90
2019-02-27T18:05:31.970Z,42.90
2019-02-27T18:08:00.568Z,57.93
2019-02-27T18:10:29.271Z,60.70
2019-02-27T18:12:58.818Z,99.70
2019-02-27T18:15:28.314Z,53.20
2019-02-27T18:17:56.958Z,54.90
2019-02-27T18:20:25.857Z,84.58
2019-02-27T18:22:54.589Z,50.88
2019-02-27T18:25:23.315Z,73.95
2019-02-27T18:27:52.054Z,70.25
2019-02-27T18:30:23.599Z,67.30
2019-02-27T18:32:52.254Z,55.52
2019-02-27T18:35:20.781Z,58.83
2019-02-27T18:37:53.338Z,52.78
2019-02-27T18:40:20.229Z,63.65
2019-02-27T18:42:48.831Z,52.43
2019-02-27T18:45:19.448Z,61.25
2019-02-27T18:47:48.148Z,56.10
2019-02-27T18:50:24.806Z,50.52
2019-02-27T18:52:52.188Z,63.65
2019-02-27T18:55:20.798Z,56.70
2019-02-27T18:57:49.345Z,54.18
2019-02-27T19:00:25.535Z,51.65
2019-02-27T19:03:02.349Z,51.50
2019-02-27T19:05:30.928Z,52.45
2019-02-27T19:07:59.546Z,51.98
2019-02-27T19:10:28.257Z,47.03
2019-02-27T19:13:00.019Z,53.25
2019-02-27T19:15:27.726Z,51.85
2019-02-27T19:17:56.356Z,49.93
2019-02-27T19:20:31.139Z,47.75
2019-02-27T19:23:03.610Z,54.38
2019-02-27T19:25:34.814Z,52.17
2019-02-27T19:28:05.865Z,44.35
2019-02-27T19:30:34.810Z,47.70
2019-02-27T19:33:03.806Z,41.77
2019-02-27T19:35:32.465Z,47.95
2019-02-27T19:38:01.050Z,50.92
2019-02-27T19:40:30.465Z,52.58
2019-02-27T19:43:04.552Z,45.88
2019-02-27T19:45:35.941Z,50.67
2019-02-27T19:48:03.357Z,47.95
2019-02-27T19:50:32.012Z,46.65
2019-02-27T19:53:05.167Z,46.92
2019-02-27T19:55:30.926Z,49.35
2019-02-27T19:58:00.705Z,46.63
2019-02-27T20:00:33.613Z,52.27
2019-02-27T20:03:01.579Z,49.18
2019-02-27T20:05:30.611Z,45.90
2019-02-27T20:07:59.328Z,51.50
2019-02-27T20:10:33.104Z,48.70
2019-02-27T20:13:01.173Z,51.70
2019-02-27T20:15:29.802Z,42.67
2019-02-27T20:17:58.411Z,48.42
2019-02-27T20:20:40.911Z,60.12
2019-02-27T20:23:07.654Z,49.77
2019-02-27T20:25:36.547Z,121.65
2019-02-27T20:28:05.294Z,62.75
2019-02-27T20:30:33.820Z,60.78
2019-02-27T20:33:03.153Z,60.98
2019-02-27T20:35:34.634Z,115.88
2019-02-27T20:38:15.339Z,68.55
2019-02-27T20:40:42.334Z,63.33
2019-02-27T20:43:18.592Z,48.98
2019-02-27T20:45:53.289Z,58.68
2019-02-27T20:48:22.042Z,56.37
2019-02-27T20:51:06.083Z,51.85
2019-02-27T20:53:34.947Z,55.52
2019-02-27T20:56:03.750Z,53.02
2019-02-27T20:58:32.380Z,51.53
2019-02-27T21:01:00.955Z,59.40
2019-02-27T21:03:29.570Z,58.58
2019-02-27T21:06:00.758Z,52.60
2019-02-27T21:08:29.307Z,49.03
2019-02-27T21:10:59.768Z,48.85
2019-02-27T21:13:28.552Z,54.50
2019-02-27T21:16:04.321Z,46.63
2019-02-27T21:18:32.577Z,54.98
2019-02-27T21:21:01.995Z,54.98
2019-02-27T21:23:32.921Z,52.25
2019-02-27T21:26:00.924Z,54.85
2019-02-27T21:28:29.595Z,51.28
2019-02-27T21:30:58.203Z,55.80
2019-02-27T21:33:26.935Z,54.73
2019-02-27T21:35:55.545Z,50.95
2019-02-27T21:38:24.083Z,70.72
2019-02-27T21:40:54.937Z,74.55
2019-02-27T21:43:25.592Z,92.95
2019-02-27T21:45:56.626Z,57.43
2019-02-27T21:48:27.799Z,51.77
2019-02-27T21:50:56.700Z,54.58
2019-02-27T21:53:29.588Z,54.45
2019-02-27T21:55:58.380Z,84.10
2019-02-27T21:58:31.931Z,57.43
2019-02-27T22:00:57.300Z,55.92
2019-02-27T22:03:25.880Z,62.38
2019-02-27T22:05:54.690Z,60.88
2019-02-27T22:08:25.133Z,53.78
2019-02-27T22:10:54.483Z,54.67
2019-02-27T22:13:29.500Z,60.92
2019-02-27T22:15:56.653Z,55.65
2019-02-27T22:18:23.749Z,56.37
2019-02-27T22:20:52.404Z,60.10
2019-02-27T22:23:21.498Z,64.03
2019-02-27T22:26:03.118Z,60.60
2019-02-27T22:28:51.107Z,54.42
2019-02-27T22:31:21.264Z,62.53
2019-02-27T22:33:50.103Z,56.15
2019-02-27T22:36:20.275Z,59.75
2019-02-27T22:38:49.068Z,59.53
2019-02-27T22:41:17.613Z,67.85
2019-02-27T22:43:46.246Z,56.70
2019-02-27T22:46:17.140Z,61.70
2019-02-27T22:48:45.779Z,58.60
2019-02-27T22:51:14.242Z,66.50
2019-02-27T22:53:43.114Z,62.05
2019-02-27T22:56:15.762Z,64.50
2019-02-27T22:58:46.611Z,62.65
2019-02-27T23:01:20.542Z,60.60
2019-02-27T23:03:54.949Z,66.12
2019-02-27T23:06:22.113Z,66.22
2019-02-27T23:08:50.683Z,60.20
2019-02-27T23:11:19.443Z,67.75
2019-02-27T23:13:48.531Z,66.00
2019-02-27T23:16:17.308Z,64.53
2019-02-27T23:18:46.426Z,68.20
2019-02-27T23:21:15.043Z,62.45
2019-02-27T23:23:43.732Z,66.37
2019-02-27T23:26:12.365Z,72.87
2019-02-27T23:28:40.904Z,66.33
2019-02-27T23:31:09.506Z,77.05
2019-02-27T23:33:38.095Z,74.70
2019-02-27T23:36:06.783Z,71.90
2019-02-27T23:38:35.895Z,68.72
2019-02-27T23:41:04.658Z,68.35
2019-02-27T23:43:33.975Z,64.20
2019-02-27T23:46:03.615Z,73.30
2019-02-27T23:48:36.094Z,65.52
2019-02-27T23:51:04.100Z,70.20
2019-02-27T23:53:33.942Z,70.22
2019-02-27T23:56:02.537Z,71.50
2019-02-27T23:58:34.098Z,71.57
